Fleming, Canada
Current Conditions -  °F | °C
As of 6:48 PM on Monday 22 Dec 2014 (Local Time) from CYBR Reporting Station
Overcast Overcast  
Wind Chill: 19°   Ceiling: 3300
Heat Index: 30°   Visibility: 8mi
Dew Point: 30°   Wind: 15mph
Humidity: 100%   Direction: 50°NE
Pressure: 29.78"   Gusts: NA
Location:  50.07°N, 101.52°W
Report Text: CYBR 230048Z 05013KT 8SM SCT006 OVC033 M01/M01 A2978 RMK SF4SC4 BR SLP109
Loading
Personal Weather Stations






























Interactive Weather Map New forecast layout! Learn more

10-Day Weather Forecast

Advertisements
Track Severe Weather on mobile